Time;durP1;ratioP1;P1;durP2;ratioP2;P2;SDS_P1;SDS_P2;PMS_P1;PMS_P2;Temp;Humidity;BMP_temperature;BMP_pressure;BME280_temperature;BME280_humidity;BME280_pressure;Samples;Min_cycle;Max_cycle;Signal;HPM_P1;HPM_P2
2021/01/22 00:02:17;;;;;;;36.75;14.95;;;;;;;-0.18;92.61;97605.34;4966523;28;20030;-64
2021/01/22 00:04:45;;;;;;;35.25;15.35;;;;;;;-0.11;92.30;97592.19;4966627;28;20409;-63
2021/01/22 00:07:11;;;;;;;28.63;13.27;;;;;;;-0.14;92.69;97601.75;4966178;28;20058;-64
2021/01/22 00:09:36;;;;;;;28.63;13.68;;;;;;;-0.18;93.35;97597.19;4981100;28;20031;-64
2021/01/22 00:12:03;;;;;;;35.50;14.55;;;;;;;-0.52;93.41;97537.38;4964624;28;20112;-64
2021/01/22 00:14:28;;;;;;;53.40;21.88;;;;;;;-0.13;92.58;97578.09;4981010;28;20034;-64
2021/01/22 00:16:53;;;;;;;47.85;18.33;;;;;;;-0.19;92.68;97571.06;4949476;28;20607;-63
2021/01/22 00:19:19;;;;;;;51.17;20.08;;;;;;;-0.15;92.26;97596.59;4945601;29;20035;-64
2021/01/22 00:21:44;;;;;;;46.03;17.95;;;;;;;-0.32;92.80;97569.81;4947045;28;20127;-67
2021/01/22 00:24:10;;;;;;;57.00;21.45;;;;;;;-0.24;92.01;97565.69;4945600;29;20039;-66
2021/01/22 00:26:35;;;;;;;45.63;22.75;;;;;;;-1.27;91.67;97414.97;4947046;28;20035;-66
2021/01/22 00:29:01;;;;;;;45.20;20.73;;;;;;;-0.31;92.08;97581.53;4945311;29;20130;-66
2021/01/22 00:31:26;;;;;;;41.05;17.85;;;;;;;-0.69;92.52;97509.00;4961062;28;20050;-63
2021/01/22 00:33:51;;;;;;;47.85;23.08;;;;;;;-0.34;92.92;97571.22;4946970;29;20050;-62
2021/01/22 00:36:17;;;;;;;56.03;26.50;;;;;;;-0.25;92.33;97583.09;4946655;28;20043;-64
2021/01/22 00:38:42;;;;;;;55.28;26.40;;;;;;;-0.39;91.77;97579.44;4946648;29;20051;-64
2021/01/22 00:41:08;;;;;;;58.92;25.90;;;;;;;-0.44;92.26;97582.19;4945304;28;20047;-63
2021/01/22 00:43:33;;;;;;;55.97;25.25;;;;;;;-0.42;91.57;97569.13;4946401;28;20035;-63
2021/01/22 00:45:59;;;;;;;43.25;19.23;;;;;;;-0.45;92.49;97575.97;4944938;28;20039;-63
2021/01/22 00:48:24;;;;;;;32.38;14.95;;;;;;;-0.52;92.85;97667.19;4945063;29;20082;-63
2021/01/22 00:50:49;;;;;;;36.47;16.45;;;;;;;-0.83;93.13;97491.72;4946431;28;20094;-64
2021/01/22 00:53:15;;;;;;;41.53;18.88;;;;;;;-0.87;92.59;97491.50;4949354;29;20462;-63
2021/01/22 00:55:40;;;;;;;35.00;15.25;;;;;;;-0.39;92.69;97563.09;4949043;28;20047;-63
2021/01/22 00:58:06;;;;;;;23.75;10.50;;;;;;;-0.70;93.99;97524.53;4951930;28;20122;-64
2021/01/22 01:00:32;;;;;;;20.92;10.20;;;;;;;-1.27;94.02;97431.25;4950289;28;20106;-63
2021/01/22 01:02:57;;;;;;;22.10;10.20;;;;;;;-0.41;94.35;97559.88;4949003;29;20027;-64
2021/01/22 01:05:23;;;;;;;20.08;9.82;;;;;;;-0.60;93.89;97518.19;4950598;28;20043;-63
2021/01/22 01:07:48;;;;;;;19.85;9.10;;;;;;;-0.79;93.95;97495.53;4950003;28;20193;-63
2021/01/22 01:10:14;;;;;;;17.27;8.32;;;;;;;-0.36;93.72;97557.09;4948422;28;20039;-64
2021/01/22 01:12:39;;;;;;;18.58;7.82;;;;;;;-0.73;93.71;97475.34;4948633;28;20070;-63
2021/01/22 01:15:06;;;;;;;47.75;22.80;;;;;;;-0.58;92.65;97494.19;4948882;28;20043;-64
2021/01/22 01:17:32;;;;;;;65.70;26.25;;;;;;;-0.63;91.58;97540.47;4950039;28;20043;-63
2021/01/22 01:19:58;;;;;;;54.58;23.15;;;;;;;-1.42;93.01;97450.44;4964724;28;20047;-64
2021/01/22 01:22:23;;;;;;;45.30;20.83;;;;;;;-1.74;93.76;97386.56;4948342;29;20043;-63
2021/01/22 01:24:49;;;;;;;43.22;19.52;;;;;;;-0.81;93.91;97527.63;4950121;28;20035;-63
2021/01/22 01:27:14;;;;;;;52.83;21.92;;;;;;;-1.19;93.88;97460.53;4948339;29;20042;-64
2021/01/22 01:29:40;;;;;;;57.45;22.67;;;;;;;-0.69;94.75;97517.16;4948380;29;20448;-64
2021/01/22 01:32:05;;;;;;;47.35;18.83;;;;;;;-0.78;95.19;97517.00;4949829;28;20533;-64
2021/01/22 01:34:31;;;;;;;35.45;15.05;;;;;;;-0.65;96.22;97521.72;4950158;28;20045;-63
2021/01/22 01:36:56;;;;;;;53.42;22.23;;;;;;;-0.72;95.49;97493.25;4948570;28;20043;-63
2021/01/22 01:39:22;;;;;;;36.42;16.80;;;;;;;-1.47;94.37;97382.56;4948513;29;20043;-63
2021/01/22 01:41:47;;;;;;;51.97;21.75;;;;;;;-0.83;94.45;97498.00;4949677;28;20113;-63
2021/01/22 01:44:12;;;;;;;42.40;19.20;;;;;;;-1.23;94.58;97437.78;4948210;29;20070;-63
2021/01/22 01:46:38;;;;;;;48.95;20.65;;;;;;;-0.75;94.43;97531.91;4949618;28;20130;-63
2021/01/22 01:49:03;;;;;;;50.53;22.42;;;;;;;-1.98;94.39;97306.97;4949842;28;20388;-63
2021/01/22 01:51:29;;;;;;;57.22;25.17;;;;;;;-1.16;93.83;97443.66;4948008;28;20050;-63
2021/01/22 01:53:55;;;;;;;61.42;26.13;;;;;;;-0.57;92.86;97528.47;4949400;28;20430;-62
2021/01/22 01:56:21;;;;;;;74.13;32.05;;;;;;;-0.55;92.87;97528.97;4949629;28;20034;-63
2021/01/22 01:58:47;;;;;;;68.68;30.33;;;;;;;-0.56;93.21;97508.31;4953391;28;20047;-63
2021/01/22 02:01:15;;;;;;;66.32;28.92;;;;;;;-0.97;92.63;97430.97;4949597;28;20173;-63
2021/01/22 02:03:41;;;;;;;76.05;31.73;;;;;;;-0.64;93.25;97511.69;4949240;28;20541;-63
2021/01/22 02:06:06;;;;;;;64.88;28.02;;;;;;;-1.00;93.47;97458.75;4949138;28;20035;-63
2021/01/22 02:08:33;;;;;;;59.25;26.48;;;;;;;-0.66;94.07;97513.84;4948989;28;20121;-63
2021/01/22 02:11:01;;;;;;;57.47;24.88;;;;;;;-0.58;95.01;97505.09;4948850;28;20055;-64
2021/01/22 02:13:29;;;;;;;59.80;24.08;;;;;;;-0.49;94.95;97504.16;4949140;29;20051;-63
2021/01/22 02:15:56;;;;;;;33.22;13.50;;;;;;;-0.32;94.27;97514.59;4947442;28;20506;-63
2021/01/22 02:18:21;;;;;;;28.17;11.32;;;;;;;-0.26;93.96;97497.13;4947741;28;20082;-63
2021/01/22 02:21:23;;;;;;;54.90;23.73;;;;;;;-0.80;96.02;97512.91;4949025;28;20035;-63
2021/01/22 02:23:50;;;;;;;51.72;22.45;;;;;;;-0.66;95.30;97492.09;4947588;28;20039;-64
2021/01/22 02:26:27;;;;;;;46.95;20.98;;;;;;;-0.65;94.37;97499.19;4948802;28;20035;-65
2021/01/22 02:28:56;;;;;;;42.40;18.70;;;;;;;-0.54;92.59;97517.03;4947598;29;20078;-65
2021/01/22 02:31:22;;;;;;;49.67;23.42;;;;;;;-0.55;92.41;97499.06;4948671;28;20035;-64
2021/01/22 02:33:49;;;;;;;57.78;24.38;;;;;;;-0.57;93.52;97495.84;4948820;28;20031;-64
2021/01/22 02:36:19;;;;;;;53.78;21.52;;;;;;;-0.63;93.84;97475.22;4948917;28;20490;-65
2021/01/22 02:38:47;;;;;;;65.90;27.73;;;;;;;-0.57;94.06;97490.41;4947360;29;20036;-64
2021/01/22 02:41:18;;;;;;;41.08;18.52;;;;;;;-0.78;95.99;97488.97;4946572;28;20040;-63
2021/01/22 02:43:45;;;;;;;34.75;15.38;;;;;;;-1.39;98.19;97430.84;4963297;28;20049;-63
2021/01/22 02:46:11;;;;;;;42.97;20.58;;;;;;;-1.67;98.44;97349.06;4948552;28;20067;-64
2021/01/22 02:48:38;;;;;;;39.03;17.00;;;;;;;-0.72;98.34;97479.66;4947271;29;20307;-64
2021/01/22 02:51:12;;;;;;;37.42;18.63;;;;;;;-0.74;97.71;97479.13;4948523;28;20121;-65
2021/01/22 02:53:39;;;;;;;46.95;22.90;;;;;;;-1.12;96.68;97442.00;4948535;29;20035;-63
2021/01/22 02:56:20;;;;;;;43.47;20.60;;;;;;;-0.68;96.65;97488.88;4963139;28;20035;-65
2021/01/22 02:59:11;;;;;;;52.40;21.52;;;;;;;-0.70;95.62;97496.50;4958849;28;20088;-63
2021/01/22 03:01:56;;;;;;;47.13;20.65;;;;;;;-0.63;94.89;97488.81;4967536;28;20042;-63
2021/01/22 03:04:24;;;;;;;54.80;21.75;;;;;;;-0.62;94.61;97493.16;4967791;28;20070;-63
2021/01/22 03:06:50;;;;;;;45.20;21.23;;;;;;;-0.91;94.94;97440.69;4967350;28;20509;-63
2021/01/22 03:09:20;;;;;;;43.42;18.45;;;;;;;-1.08;94.29;97407.72;4967716;28;20035;-62
2021/01/22 03:11:53;;;;;;;38.72;16.85;;;;;;;-0.61;94.59;97483.91;4965553;28;20100;-63
2021/01/22 03:14:19;;;;;;;31.13;13.38;;;;;;;-0.60;94.24;97474.66;4966908;28;20042;-63
2021/01/22 03:16:47;;;;;;;27.50;12.38;;;;;;;-1.17;94.67;97406.72;4967204;28;20038;-64
2021/01/22 03:19:12;;;;;;;19.52;10.02;;;;;;;-1.57;94.48;97308.25;4967045;28;20046;-64
2021/01/22 03:21:37;;;;;;;44.97;19.27;;;;;;;-1.07;93.28;97417.47;4966957;28;20031;-64
2021/01/22 03:24:03;;;;;;;47.83;19.38;;;;;;;-0.70;93.66;97442.13;4965747;28;20565;-64
2021/01/22 03:26:29;;;;;;;41.72;18.55;;;;;;;-0.52;93.72;97468.59;4965498;28;20038;-64
2021/01/22 03:28:54;;;;;;;35.72;15.88;;;;;;;-0.54;93.77;97462.63;4967304;28;20035;-64
2021/01/22 03:31:20;;;;;;;41.97;18.35;;;;;;;-1.57;92.92;97281.09;4967069;28;20426;-63
2021/01/22 03:33:46;;;;;;;56.20;19.80;;;;;;;-0.52;93.34;97465.88;4967131;28;20031;-63
2021/01/22 03:36:11;;;;;;;34.08;15.30;;;;;;;-0.60;93.24;97470.00;4965810;28;20133;-64
2021/01/22 03:38:37;;;;;;;41.22;16.10;;;;;;;-0.63;92.33;97442.56;4967416;28;20162;-63
2021/01/22 03:41:02;;;;;;;35.65;15.13;;;;;;;-1.37;92.01;97328.13;4967056;28;20039;-63
2021/01/22 03:43:28;;;;;;;46.92;19.92;;;;;;;-1.78;92.06;97284.25;4966780;28;20034;-63
2021/01/22 03:45:53;;;;;;;32.80;16.02;;;;;;;-1.20;92.94;97391.78;4966396;28;20557;-63
2021/01/22 03:48:19;;;;;;;39.45;18.42;;;;;;;-1.02;93.96;97429.13;4966684;28;20031;-63
2021/01/22 03:50:44;;;;;;;53.40;22.48;;;;;;;-0.99;94.76;97449.47;4962005;28;20039;-63
2021/01/22 03:53:10;;;;;;;44.45;19.70;;;;;;;-0.82;95.87;97496.09;4947111;29;20027;-62
2021/01/22 03:55:36;;;;;;;55.85;20.58;;;;;;;-0.84;96.65;97481.97;4945833;28;20433;-62
2021/01/22 03:58:02;;;;;;;49.63;20.85;;;;;;;-0.79;96.38;97481.94;4951207;28;20026;-62
2021/01/22 04:00:27;;;;;;;62.03;23.75;;;;;;;-1.02;96.60;97450.06;4966409;28;20118;-63
2021/01/22 04:02:52;;;;;;;91.40;32.80;;;;;;;-1.48;96.17;97337.47;4965889;28;20046;-62
2021/01/22 04:05:18;;;;;;;115.07;38.35;;;;;;;-0.76;94.56;97437.84;4964466;28;20425;-62
2021/01/22 04:07:44;;;;;;;132.10;39.15;;;;;;;-0.64;94.76;97495.34;4964989;28;20093;-62
2021/01/22 04:10:09;;;;;;;114.50;40.40;;;;;;;-0.62;92.74;97504.03;4966521;28;20031;-62
2021/01/22 04:12:35;;;;;;;94.90;36.17;;;;;;;-0.81;93.96;97489.56;4965977;28;20058;-63
2021/01/22 04:15:05;;;;;;;84.10;34.00;;;;;;;-0.88;93.09;97498.03;4966522;28;20066;-63
2021/01/22 04:17:30;;;;;;;100.35;37.05;;;;;;;-1.11;93.22;97468.09;4966755;28;20457;-63
2021/01/22 04:19:56;;;;;;;82.30;35.35;;;;;;;-0.87;93.48;97491.50;4966576;28;20043;-63
2021/01/22 04:22:21;;;;;;;75.90;30.20;;;;;;;-0.77;92.59;97490.59;4966266;28;20053;-64
2021/01/22 04:24:47;;;;;;;80.00;33.40;;;;;;;-0.90;93.08;97492.06;4966607;28;20141;-64
2021/01/22 04:27:12;;;;;;;134.55;50.70;;;;;;;-1.05;94.23;97469.66;4965398;28;20034;-63
2021/01/22 04:29:38;;;;;;;150.43;57.17;;;;;;;-0.85;94.36;97493.94;4966371;28;20046;-63
2021/01/22 04:32:03;;;;;;;151.50;56.42;;;;;;;-0.86;94.21;97497.75;4965640;28;20061;-62
2021/01/22 04:34:29;;;;;;;141.65;57.13;;;;;;;-1.38;94.31;97424.31;4966053;28;20550;-62
2021/01/22 04:36:55;;;;;;;139.18;58.97;;;;;;;-0.72;93.63;97504.97;4966186;28;20062;-62
2021/01/22 04:39:20;;;;;;;103.85;40.95;;;;;;;-0.79;92.33;97503.69;4966089;28;20490;-62
2021/01/22 04:41:46;;;;;;;87.55;31.02;;;;;;;-1.39;95.09;97493.31;4965734;28;20046;-62
2021/01/22 04:44:11;;;;;;;76.35;33.70;;;;;;;-1.34;95.47;97468.84;4964618;28;20037;-62
2021/01/22 04:46:37;;;;;;;83.95;33.83;;;;;;;-4.00;94.41;97031.47;4963933;28;20066;-62
2021/01/22 04:49:05;;;;;;;91.93;36.55;;;;;;;-0.98;94.44;97500.06;4965879;28;20398;-63
2021/01/22 04:51:34;;;;;;;88.57;36.25;;;;;;;-1.05;94.36;97499.56;4965691;28;20506;-63
2021/01/22 04:54:07;;;;;;;97.35;37.65;;;;;;;-1.28;93.47;97484.00;4964312;28;20030;-64
2021/01/22 04:56:43;;;;;;;105.90;41.03;;;;;;;-0.96;93.29;97492.41;4965967;28;20486;-63
2021/01/22 04:59:20;;;;;;;129.10;48.88;;;;;;;-0.89;92.80;97501.03;4964264;28;20042;-63
2021/01/22 05:01:47;;;;;;;81.15;36.20;;;;;;;-1.05;93.55;97475.09;4965745;28;20564;-63
2021/01/22 05:04:13;;;;;;;115.35;46.85;;;;;;;-0.92;93.73;97496.19;4965703;28;20512;-63
2021/01/22 05:06:39;;;;;;;156.52;55.40;;;;;;;-0.93;94.25;97491.84;4965780;28;20498;-63
2021/01/22 05:09:04;;;;;;;150.07;54.70;;;;;;;-0.93;94.01;97491.84;4965945;28;20039;-63
2021/01/22 05:11:30;;;;;;;158.07;59.50;;;;;;;-0.93;94.23;97480.97;4963743;28;20058;-64
2021/01/22 05:13:57;;;;;;;146.38;57.25;;;;;;;-1.27;94.06;97426.66;4965516;28;20038;-63
2021/01/22 05:16:23;;;;;;;122.82;47.92;;;;;;;-1.14;94.38;97460.50;4965605;28;20121;-64
2021/01/22 05:18:49;;;;;;;142.43;55.42;;;;;;;-1.49;94.43;97412.72;4964082;28;20027;-64
2021/01/22 05:21:15;;;;;;;163.75;64.88;;;;;;;-0.84;94.09;97490.13;4961020;28;20038;-64
2021/01/22 05:23:42;;;;;;;133.48;55.83;;;;;;;-0.79;93.87;97477.28;4965534;28;20039;-63
2021/01/22 05:26:13;;;;;;;125.25;51.85;;;;;;;-0.79;94.81;97465.63;4963922;28;20039;-63
2021/01/22 05:28:43;;;;;;;138.70;55.20;;;;;;;-0.77;94.98;97457.94;4965455;28;20045;-64
2021/01/22 05:31:17;;;;;;;165.23;69.85;;;;;;;-1.08;94.40;97396.84;4965619;28;20113;-63
2021/01/22 05:33:56;;;;;;;170.75;70.25;;;;;;;-0.63;94.81;97480.66;4965893;28;20537;-63
2021/01/22 05:36:22;;;;;;;163.73;70.63;;;;;;;-0.57;94.11;97458.53;4965709;28;20034;-62
2021/01/22 05:38:48;;;;;;;112.50;50.10;;;;;;;-0.61;94.42;97440.38;4983056;28;20045;-64
2021/01/22 05:41:13;;;;;;;38.85;18.80;;;;;;;-1.07;95.92;97384.88;4967634;28;20058;-65
2021/01/22 05:43:39;;;;;;;41.75;19.08;;;;;;;-0.94;96.37;97385.00;4968885;28;20223;-63
2021/01/22 05:46:25;;;;;;;32.03;16.52;;;;;;;-0.32;95.44;97468.34;4983289;28;20268;-64
2021/01/22 05:49:14;;;;;;;42.28;18.23;;;;;;;-0.34;96.33;97451.47;4969048;28;20074;-64
2021/01/22 05:51:40;;;;;;;37.35;16.85;;;;;;;-0.25;95.44;97460.63;4967311;28;20039;-63
2021/01/22 05:54:05;;;;;;;71.15;33.28;;;;;;;-0.29;95.32;97465.03;4967252;28;20477;-62
2021/01/22 05:56:31;;;;;;;94.05;44.17;;;;;;;-1.81;96.57;97334.53;4968894;28;20062;-64
2021/01/22 05:58:56;;;;;;;82.20;39.33;;;;;;;-1.12;96.96;97384.94;4967083;28;20097;-64
2021/01/22 06:01:26;;;;;;;88.55;37.05;;;;;;;-1.22;95.67;97345.09;4967164;28;20042;-63
2021/01/22 06:03:53;;;;;;;68.32;30.17;;;;;;;-0.73;95.54;97472.63;4968216;28;20616;-62
2021/01/22 06:06:20;;;;;;;64.55;28.52;;;;;;;-0.95;95.53;97423.34;4962798;28;20482;-63
2021/01/22 06:08:57;;;;;;;69.90;31.17;;;;;;;-0.31;93.57;97461.78;4951497;28;20434;-61
2021/01/22 06:11:25;;;;;;;76.78;31.73;;;;;;;-0.57;92.78;97430.56;4953760;28;20046;-63
2021/01/22 06:13:52;;;;;;;84.13;35.72;;;;;;;-0.14;92.85;97467.56;4968010;28;20132;-60
2021/01/22 06:16:20;;;;;;;88.25;42.00;;;;;;;0.01;92.33;97470.09;4982768;28;20038;-63
2021/01/22 06:18:51;;;;;;;95.32;43.70;;;;;;;-0.06;92.05;97461.47;4953102;28;20042;-64
2021/01/22 06:21:29;;;;;;;99.15;44.42;;;;;;;0.18;92.15;97464.97;4960453;28;20137;-60
2021/01/22 06:23:55;;;;;;;93.13;45.58;;;;;;;-0.16;91.52;97393.56;4966752;28;20194;-62
2021/01/22 06:26:21;;;;;;;116.32;54.10;;;;;;;0.06;91.80;97395.69;4999023;28;20129;-64
2021/01/22 06:28:51;;;;;;;155.60;64.97;;;;;;;0.55;90.63;97453.25;4966757;28;20034;-61
2021/01/22 06:31:19;;;;;;;146.85;66.07;;;;;;;-0.63;90.27;97254.91;4965872;28;20030;-61
2021/01/22 06:33:46;;;;;;;134.93;63.28;;;;;;;0.57;90.60;97460.00;4967009;28;20874;-64
2021/01/22 06:36:12;;;;;;;131.77;58.70;;;;;;;0.77;90.65;97465.16;4958301;28;20040;-63
2021/01/22 06:38:42;;;;;;;154.32;72.95;;;;;;;0.57;90.92;97430.03;4946591;28;20125;-63
2021/01/22 06:41:12;;;;;;;105.72;49.35;;;;;;;-1.39;88.84;97096.72;4948513;28;20178;-69
2021/01/22 06:43:38;;;;;;;120.93;53.92;;;;;;;1.17;89.51;97475.38;4948763;28;20035;-63
2021/01/22 06:46:12;;;;;;;102.47;50.50;;;;;;;1.14;89.19;97462.31;4947175;28;20228;-62
2021/01/22 06:48:55;;;;;;;106.80;50.38;;;;;;;1.08;89.35;97414.44;4959905;28;20042;-63
2021/01/22 06:51:22;;;;;;;107.93;48.90;;;;;;;1.50;88.43;97455.09;4964206;28;20051;-62
2021/01/22 06:54:21;;;;;;;86.15;41.58;;;;;;;1.53;87.98;97457.22;4966032;28;20118;-61
2021/01/22 06:56:55;;;;;;;77.45;37.63;;;;;;;1.72;87.61;97461.78;4982045;28;20162;-62
2021/01/22 06:59:26;;;;;;;70.68;38.10;;;;;;;1.93;85.57;97465.75;4967880;28;20070;-68
2021/01/22 07:01:52;;;;;;;104.68;45.92;;;;;;;1.42;85.50;97433.19;4964390;28;20034;-64
2021/01/22 07:04:29;;;;;;;99.25;45.90;;;;;;;1.69;85.61;97456.94;4966939;28;20030;-64
2021/01/22 07:06:58;;;;;;;105.47;50.30;;;;;;;1.58;86.19;97478.97;4965745;28;20039;-61
2021/01/22 07:09:43;;;;;;;143.63;66.60;;;;;;;1.62;85.77;97461.97;4967102;28;20038;-61
2021/01/22 07:12:09;;;;;;;176.30;76.90;;;;;;;1.58;85.44;97454.41;4965362;28;20101;-61
2021/01/22 07:14:46;;;;;;;205.20;88.50;;;;;;;1.68;85.63;97460.75;4966250;28;20042;-60
2021/01/22 07:17:24;;;;;;;164.65;77.60;;;;;;;1.73;85.82;97458.75;4947403;28;20102;-62
2021/01/22 07:19:54;;;;;;;129.35;59.58;;;;;;;1.83;84.72;97452.28;4962779;28;20038;-61
2021/01/22 07:22:21;;;;;;;121.18;61.03;;;;;;;1.42;85.12;97375.88;4964212;28;20047;-61
2021/01/22 07:24:54;;;;;;;154.32;68.10;;;;;;;1.90;85.02;97431.63;4964677;28;20066;-69
2021/01/22 07:27:20;;;;;;;180.07;89.55;;;;;;;2.21;84.21;97457.22;4978834;28;20121;-63
2021/01/22 07:30:21;;;;;;;181.77;93.90;;;;;;;2.32;83.85;97468.72;4965810;28;20088;-63
2021/01/22 07:32:51;;;;;;;204.20;101.65;;;;;;;2.21;84.80;97448.19;4963254;28;20046;-63
2021/01/22 07:35:21;;;;;;;221.90;110.32;;;;;;;2.45;84.97;97446.00;4960740;28;20054;-64
2021/01/22 07:37:48;;;;;;;249.18;114.25;;;;;;;2.03;85.47;97449.94;4964848;28;20039;-64
2021/01/22 07:40:14;;;;;;;144.57;70.78;;;;;;;1.61;86.89;97362.09;4966599;28;20038;-60
2021/01/22 07:42:40;;;;;;;145.05;72.25;;;;;;;2.04;85.40;97366.06;4964841;28;20536;-59
2021/01/22 07:45:12;;;;;;;186.20;82.55;;;;;;;2.83;84.86;97434.41;4966004;28;20147;-61
2021/01/22 07:47:42;;;;;;;154.38;75.15;;;;;;;3.21;84.15;97429.31;4964983;28;20043;-60
2021/01/22 07:50:10;;;;;;;161.98;72.85;;;;;;;3.65;82.07;97423.72;4964516;28;20039;-61
2021/01/22 07:52:41;;;;;;;161.70;76.55;;;;;;;3.99;80.27;97429.34;4965976;28;20042;-62
2021/01/22 07:55:27;;;;;;;135.82;69.13;;;;;;;4.13;79.65;97419.06;4963943;28;20035;-67
2021/01/22 07:58:05;;;;;;;98.28;47.63;;;;;;;4.02;80.65;97423.22;4963903;28;20129;-63
2021/01/22 08:00:38;;;;;;;59.65;32.33;;;;;;;3.64;81.65;97372.81;4965774;28;20410;-63
2021/01/22 08:03:03;;;;;;;19.43;11.10;;;;;;;3.77;79.79;97354.66;4964623;28;20066;-66
2021/01/22 08:05:37;;;;;;;20.85;10.35;;;;;;;4.07;79.72;97384.69;4966211;28;20569;-65
2021/01/22 08:08:27;;;;;;;34.42;17.92;;;;;;;4.78;77.18;97420.84;4965241;28;20038;-64
2021/01/22 08:10:53;;;;;;;35.25;20.92;;;;;;;5.05;76.69;97423.25;4946923;28;20054;-62
2021/01/22 08:13:19;;;;;;;52.00;26.52;;;;;;;5.01;77.33;97372.91;4980175;28;20434;-62
2021/01/22 08:15:44;;;;;;;53.15;31.23;;;;;;;5.13;74.81;97345.56;4983593;28;20245;-63
2021/01/22 08:18:11;;;;;;;79.03;41.88;;;;;;;5.84;73.95;97427.09;4982967;28;20041;-62
2021/01/22 08:20:37;;;;;;;64.50;36.03;;;;;;;5.46;77.40;97427.03;4964788;28;20137;-63
2021/01/22 08:23:03;;;;;;;68.38;39.42;;;;;;;5.79;75.97;97428.06;4965910;28;20027;-61
2021/01/22 08:25:29;;;;;;;68.75;37.53;;;;;;;5.91;75.37;97422.69;4965740;28;20042;-63
2021/01/22 08:27:56;;;;;;;59.13;34.72;;;;;;;5.73;75.41;97393.66;4964229;28;20031;-66
2021/01/22 08:30:24;;;;;;;55.83;33.88;;;;;;;5.60;74.55;97369.13;4964892;28;20035;-64
2021/01/22 08:32:50;;;;;;;66.18;33.58;;;;;;;6.14;74.75;97434.22;4965402;28;20031;-69
2021/01/22 08:35:16;;;;;;;66.40;38.35;;;;;;;6.40;74.33;97418.38;4965623;28;20043;-63
2021/01/22 08:37:41;;;;;;;65.93;38.25;;;;;;;6.30;72.59;97371.97;4951465;28;20070;-63
2021/01/22 08:40:07;;;;;;;44.92;27.88;;;;;;;6.64;71.90;97410.22;4953898;28;20035;-62
2021/01/22 08:42:33;;;;;;;60.08;28.88;;;;;;;6.00;74.37;97389.66;4964053;28;20052;-62
2021/01/22 08:45:00;;;;;;;45.55;24.92;;;;;;;5.94;74.27;97380.00;4965949;28;20034;-68
2021/01/22 08:47:28;;;;;;;53.10;27.55;;;;;;;6.04;74.47;97363.09;4960724;28;20045;-68
2021/01/22 08:49:55;;;;;;;37.70;21.60;;;;;;;5.96;75.46;97394.19;4963624;28;20049;-63
2021/01/22 08:52:21;;;;;;;40.65;23.65;;;;;;;5.97;76.39;97401.31;4964691;28;20043;-62
2021/01/22 08:54:49;;;;;;;37.63;21.85;;;;;;;6.23;74.43;97396.44;4994258;28;20039;-63
2021/01/22 08:57:15;;;;;;;44.35;24.13;;;;;;;6.42;72.87;97366.53;4962626;28;20034;-63
2021/01/22 08:59:52;;;;;;;41.42;25.05;;;;;;;7.10;70.57;97395.41;4957965;28;20041;-64
2021/01/22 09:02:41;;;;;;;44.42;26.42;;;;;;;6.92;70.03;97394.78;4963997;28;20122;-66
2021/01/22 09:05:11;;;;;;;49.75;28.15;;;;;;;7.15;70.92;97386.94;4950880;28;20050;-65
2021/01/22 09:07:38;;;;;;;32.42;18.73;;;;;;;7.55;68.89;97386.00;4963283;28;20122;-62
2021/01/22 09:10:06;;;;;;;50.03;28.45;;;;;;;7.75;67.01;97381.53;4957644;28;20034;-61
2021/01/22 09:12:33;;;;;;;62.10;35.53;;;;;;;8.03;65.80;97373.38;4957754;28;20181;-63
2021/01/22 09:15:06;;;;;;;29.55;18.80;;;;;;;7.70;63.91;97271.47;4966773;28;20113;-64
2021/01/22 09:17:44;;;;;;;58.08;30.63;;;;;;;8.52;63.01;97358.41;4967598;28;20046;-59
2021/01/22 09:20:13;;;;;;;40.25;21.90;;;;;;;8.76;61.25;97347.25;4966016;28;20528;-60
2021/01/22 09:22:39;;;;;;;28.33;19.40;;;;;;;8.95;60.72;97336.34;4968161;28;20106;-65
2021/01/22 09:25:07;;;;;;;24.88;15.18;;;;;;;9.16;61.14;97345.22;4967276;28;20553;-64
2021/01/22 09:27:34;;;;;;;26.33;18.40;;;;;;;6.85;58.63;96932.00;4968331;28;20142;-62
2021/01/22 09:30:00;;;;;;;49.67;34.00;;;;;;;9.48;59.60;97319.25;4966524;28;20034;-65
2021/01/22 09:32:26;;;;;;;28.08;15.13;;;;;;;9.79;59.80;97308.16;4966029;28;20034;-66
2021/01/22 09:34:52;;;;;;;17.40;10.35;;;;;;;9.00;60.07;97314.81;4969114;28;20043;-64
2021/01/22 09:37:17;;;;;;;16.73;10.95;;;;;;;8.31;61.61;97313.59;4966269;28;20089;-64
2021/01/22 09:39:43;;;;;;;20.70;12.77;;;;;;;8.30;61.90;97356.16;4968944;28;20050;-63
2021/01/22 09:42:08;;;;;;;28.70;18.75;;;;;;;8.86;61.16;97256.41;4968525;28;20081;-66
2021/01/22 09:44:34;;;;;;;17.38;12.23;;;;;;;8.90;58.66;97262.00;4967534;28;20073;-65
2021/01/22 09:46:59;;;;;;;17.52;11.60;;;;;;;9.07;59.14;97287.34;4963765;28;20498;-63
2021/01/22 09:49:25;;;;;;;16.42;9.73;;;;;;;7.27;57.48;96916.66;4967107;28;20034;-61
2021/01/22 09:51:50;;;;;;;15.77;9.35;;;;;;;9.04;57.14;97218.22;4964605;28;20084;-60
2021/01/22 09:54:16;;;;;;;12.07;7.50;;;;;;;9.42;57.19;97264.56;4968818;28;20066;-60
2021/01/22 09:56:42;;;;;;;15.32;9.75;;;;;;;8.29;56.82;97078.56;4968229;28;20897;-60
2021/01/22 09:59:07;;;;;;;24.77;12.07;;;;;;;9.86;56.52;97254.97;4968352;28;20306;-60
2021/01/22 10:01:34;;;;;;;11.57;8.23;;;;;;;10.13;55.04;97252.03;4967996;28;20117;-60
2021/01/22 10:04:00;;;;;;;13.10;9.18;;;;;;;10.45;54.12;97248.00;4968399;28;20073;-62
2021/01/22 10:06:26;;;;;;;13.70;8.45;;;;;;;10.24;52.62;97178.31;4964269;28;20071;-62
2021/01/22 10:08:51;;;;;;;16.13;10.35;;;;;;;10.46;51.76;97183.13;4979425;28;20134;-66
2021/01/22 10:11:17;;;;;;;14.77;8.10;;;;;;;10.46;52.76;97244.03;4965596;28;20063;-62
2021/01/22 10:13:42;;;;;;;11.27;7.65;;;;;;;10.18;53.08;97231.59;4965931;28;20027;-62
2021/01/22 10:16:07;;;;;;;18.13;13.15;;;;;;;9.97;54.11;97126.75;4968297;28;20043;-64
2021/01/22 10:18:33;;;;;;;12.20;7.53;;;;;;;10.51;52.38;97224.38;4968616;28;20027;-62
2021/01/22 10:20:58;;;;;;;22.05;10.48;;;;;;;9.69;52.63;97043.16;4967327;28;20038;-61
2021/01/22 10:23:23;;;;;;;15.38;9.98;;;;;;;10.96;52.19;97214.53;4955583;28;20035;-62
2021/01/22 10:25:49;;;;;;;15.20;8.55;;;;;;;11.36;51.49;97214.84;4964804;28;20038;-66
2021/01/22 10:28:14;;;;;;;16.98;8.52;;;;;;;11.70;49.77;97209.09;4967437;28;20069;-65
2021/01/22 10:30:40;;;;;;;10.90;6.97;;;;;;;11.37;49.28;97211.69;4967383;28;20573;-64
2021/01/22 10:33:05;;;;;;;10.98;7.03;;;;;;;11.17;50.37;97203.81;4966572;28;20035;-65
2021/01/22 10:35:31;;;;;;;12.23;8.02;;;;;;;10.74;50.60;97094.22;4965305;28;20154;-67
2021/01/22 10:37:56;;;;;;;27.50;11.40;;;;;;;11.97;49.11;97196.00;4965468;28;20367;-64
2021/01/22 10:40:21;;;;;;;12.23;7.18;;;;;;;12.10;47.72;97194.59;4965297;28;20533;-63
2021/01/22 10:42:47;;;;;;;10.25;7.28;;;;;;;11.27;48.01;97072.88;4964816;28;20047;-62
2021/01/22 10:45:13;;;;;;;9.57;6.93;;;;;;;12.09;47.83;97187.44;4967402;28;20026;-61
2021/01/22 10:47:38;;;;;;;9.82;6.97;;;;;;;11.87;47.88;97188.34;4967290;28;20495;-63
2021/01/22 10:50:04;;;;;;;17.92;8.98;;;;;;;11.95;49.05;97181.69;4967097;28;20042;-62
2021/01/22 10:52:30;;;;;;;33.95;15.43;;;;;;;12.19;48.64;97184.81;4959318;28;20035;-62
2021/01/22 10:54:56;;;;;;;11.40;7.93;;;;;;;11.46;48.19;97089.41;4965916;28;20045;-64
2021/01/22 10:57:22;;;;;;;13.38;8.45;;;;;;;12.58;46.67;97167.81;4965132;28;20129;-65
2021/01/22 10:59:47;;;;;;;10.18;7.38;;;;;;;12.07;46.48;97129.53;4966568;28;20027;-63
2021/01/22 11:02:12;;;;;;;9.63;6.97;;;;;;;11.27;48.30;97100.63;4959438;28;20486;-62
2021/01/22 11:04:41;;;;;;;29.02;13.70;;;;;;;12.26;47.82;97152.75;4960861;28;20505;-64
2021/01/22 11:07:07;;;;;;;12.68;8.48;;;;;;;11.97;47.10;97043.31;4965316;28;20030;-62
2021/01/22 11:09:32;;;;;;;31.83;19.15;;;;;;;12.83;47.19;97110.50;4967550;28;20046;-64
2021/01/22 11:11:58;;;;;;;35.05;24.48;;;;;;;13.31;46.86;97143.50;4966229;28;20051;-62
2021/01/22 11:14:23;;;;;;;17.17;13.15;;;;;;;13.34;46.79;97142.75;4966326;28;20046;-63
2021/01/22 11:16:49;;;;;;;14.80;8.82;;;;;;;13.61;45.82;97140.53;4968474;28;20030;-67
2021/01/22 11:19:14;;;;;;;23.48;14.52;;;;;;;13.43;45.69;97107.06;4984407;28;20049;-62
2021/01/22 11:21:40;;;;;;;32.40;16.60;;;;;;;13.72;46.26;97141.41;4966220;28;20089;-63
2021/01/22 11:24:06;;;;;;;20.40;12.77;;;;;;;13.74;45.76;97127.13;4965301;28;20425;-62